createdAt,value
2018-04-16T10:28:43.811Z,20.60
2018-04-16T10:31:29.326Z,20.30
2018-04-16T10:34:14.147Z,20.20
2018-04-16T10:36:59.786Z,19.70
2018-04-16T10:39:44.546Z,19.70
2018-04-16T10:42:29.404Z,20.10
2018-04-16T10:45:14.109Z,20.40
2018-04-16T10:47:58.860Z,20.20
2018-04-16T10:50:43.703Z,19.80
2018-04-16T10:53:28.546Z,19.40
2018-04-16T10:56:13.358Z,19.50
2018-04-16T10:58:58.094Z,19.40
2018-04-16T11:01:42.852Z,19.20
2018-04-16T11:04:27.782Z,19.20
2018-04-16T11:07:13.218Z,19.60
2018-04-16T11:09:57.894Z,19.60
2018-04-16T11:12:43.558Z,19.40
2018-04-16T11:15:28.873Z,19.40
2018-04-16T11:18:14.310Z,19.20
2018-04-16T11:20:59.058Z,19.20
2018-04-16T11:23:43.807Z,19.70
2018-04-16T11:26:28.713Z,20.20
2018-04-16T11:29:13.344Z,20.40
2018-04-16T11:31:58.133Z,20.60
2018-04-16T11:34:42.905Z,20.80
2018-04-16T11:37:27.760Z,20.60
2018-04-16T11:40:12.592Z,19.90
2018-04-16T11:42:57.468Z,19.90
2018-04-16T11:45:42.232Z,20.00
2018-04-16T11:48:27.147Z,19.70
2018-04-16T11:51:12.630Z,20.20
2018-04-16T11:53:58.208Z,20.10
2018-04-16T11:56:42.921Z,20.10
2018-04-16T11:59:27.732Z,20.20
2018-04-16T12:02:12.473Z,19.70
2018-04-16T12:04:57.255Z,19.30
2018-04-16T12:07:42.083Z,19.50
2018-04-16T12:10:27.063Z,19.70
2018-04-16T12:13:12.773Z,19.40
2018-04-16T12:15:58.126Z,19.10
2018-04-16T12:18:42.944Z,19.00
2018-04-16T12:21:28.115Z,18.80
2018-04-16T12:24:12.905Z,18.70
2018-04-16T12:26:56.372Z,19.00
2018-04-16T12:39:14.636Z,19.40
2018-04-16T12:41:46.862Z,19.80
2018-04-16T12:44:19.157Z,19.80
2018-04-16T12:46:51.195Z,19.50
2018-04-16T12:49:24.038Z,19.00
2018-04-16T12:51:56.654Z,18.90
2018-04-16T12:54:29.713Z,18.90
2018-04-16T12:57:02.050Z,19.20
2018-04-16T12:59:34.258Z,19.40
2018-04-16T13:02:06.580Z,19.50
2018-04-16T13:04:38.837Z,19.70
2018-04-16T13:07:11.685Z,19.90
2018-04-16T13:09:43.788Z,19.90
2018-04-16T13:12:16.739Z,19.90
2018-04-16T13:14:49.032Z,19.90
2018-04-16T13:17:21.180Z,20.00
2018-04-16T13:19:53.291Z,19.70
2018-04-16T13:22:26.208Z,19.70
2018-04-16T13:24:58.317Z,19.60
2018-04-16T13:27:30.477Z,19.80
2018-04-16T13:30:03.552Z,19.70
2018-04-16T13:32:35.655Z,19.70
2018-04-16T13:35:08.550Z,19.00
2018-04-16T13:37:41.705Z,19.00
2018-04-16T13:40:13.813Z,19.00
2018-04-16T13:42:45.897Z,19.10
2018-04-16T13:45:17.991Z,19.20
2018-04-16T13:47:50.053Z,19.30
2018-04-16T13:50:22.422Z,19.30
2018-04-16T13:52:54.529Z,19.20
2018-04-16T13:55:27.416Z,18.90
2018-04-16T13:58:00.338Z,18.90
2018-04-16T14:00:32.918Z,18.90
2018-04-16T14:03:05.111Z,18.70
2018-04-16T14:05:37.396Z,18.60
2018-04-16T14:08:09.686Z,18.50
2018-04-16T14:10:42.558Z,18.40
2018-04-16T14:13:14.887Z,18.40
2018-04-16T14:15:47.302Z,18.30
2018-04-16T14:18:19.575Z,18.20
2018-04-16T14:20:51.672Z,18.30
2018-04-16T14:23:23.804Z,18.40
2018-04-16T14:25:55.916Z,18.30
2018-04-16T14:28:28.105Z,18.10
2018-04-16T14:31:01.330Z,17.90
2018-04-16T14:33:33.437Z,17.80
2018-04-16T14:36:05.684Z,17.70
2018-04-16T14:38:38.769Z,17.80
2018-04-16T14:41:11.635Z,17.80
2018-04-16T14:43:44.290Z,17.70
2018-04-16T14:46:17.578Z,17.90
2018-04-16T14:48:49.832Z,18.00
2018-04-16T14:51:22.836Z,18.10
2018-04-16T14:53:55.002Z,18.20
2018-04-16T14:56:27.193Z,18.10
2018-04-16T14:58:59.394Z,18.10
2018-04-16T15:01:32.332Z,18.00
2018-04-16T15:04:10.193Z,17.90
2018-04-16T15:06:42.418Z,17.90
2018-04-16T15:09:15.582Z,18.00
2018-04-16T15:11:47.909Z,17.90
2018-04-16T15:14:20.989Z,18.20
2018-04-16T15:16:53.931Z,18.30
2018-04-16T15:19:26.114Z,18.30
2018-04-16T15:21:58.183Z,18.20
2018-04-16T15:24:30.250Z,18.10
2018-04-16T15:27:02.631Z,18.10
2018-04-16T15:29:34.874Z,17.90
2018-04-16T15:32:06.968Z,17.90
2018-04-16T15:34:39.287Z,17.70
2018-04-16T15:37:11.402Z,17.60
2018-04-16T15:39:43.544Z,17.50
2018-04-16T15:42:15.720Z,17.50
2018-04-16T15:44:47.850Z,17.40
2018-04-16T15:47:19.970Z,17.50
2018-04-16T15:49:52.296Z,17.50
2018-04-16T15:52:24.504Z,17.60
2018-04-16T15:54:56.927Z,17.60
2018-04-16T15:57:29.058Z,17.60
2018-04-16T16:00:01.468Z,17.60
2018-04-16T16:02:34.208Z,17.60
2018-04-16T16:05:06.693Z,17.40
2018-04-16T16:07:39.140Z,17.30
2018-04-16T16:10:11.445Z,17.10
2018-04-16T16:12:44.373Z,16.90
2018-04-16T16:15:16.744Z,16.90
2018-04-16T16:17:49.856Z,17.10
2018-04-16T16:20:22.085Z,17.10
2018-04-16T16:22:54.217Z,17.20
2018-04-16T16:25:26.344Z,17.10
2018-04-16T16:27:58.558Z,17.20
2018-04-16T16:30:32.031Z,17.00
2018-04-16T16:33:04.320Z,17.00
2018-04-16T16:35:36.406Z,16.90
2018-04-16T16:38:09.245Z,16.70
2018-04-16T16:40:41.615Z,16.70
2018-04-16T16:43:13.690Z,16.60
2018-04-16T16:45:46.020Z,16.50
2018-04-16T16:48:18.674Z,16.50
2018-04-16T16:50:51.578Z,16.40
2018-04-16T16:53:23.857Z,16.40
2018-04-16T16:55:55.983Z,16.30
2018-04-16T16:58:28.147Z,16.20
2018-04-16T17:01:00.317Z,16.10
2018-04-16T17:03:32.468Z,16.00
2018-04-16T17:06:04.645Z,15.90
2018-04-16T17:08:37.279Z,15.80
2018-04-16T17:11:09.625Z,15.80
2018-04-16T17:13:42.700Z,15.70
2018-04-16T17:16:14.710Z,15.70
2018-04-16T17:18:46.900Z,15.60
2018-04-16T17:21:19.111Z,15.60
2018-04-16T17:26:42.592Z,15.40
2018-04-16T17:29:16.510Z,15.20
2018-04-16T17:31:49.575Z,15.20
2018-04-16T17:34:21.991Z,15.10
2018-04-16T17:36:54.236Z,15.10
2018-04-16T17:39:28.302Z,15.00
2018-04-16T17:42:00.581Z,15.00
2018-04-16T17:44:32.690Z,15.00
2018-04-16T17:47:05.617Z,14.80
2018-04-16T17:49:37.709Z,14.80
2018-04-16T17:52:09.834Z,14.70
2018-04-16T17:54:41.911Z,14.70
2018-04-16T17:57:14.108Z,14.50
2018-04-16T17:59:46.400Z,14.50
2018-04-16T18:02:18.583Z,14.40
2018-04-16T18:04:51.559Z,14.30
2018-04-16T18:07:24.419Z,14.30
2018-04-16T18:09:56.561Z,14.20
2018-04-16T18:12:28.760Z,14.20
2018-04-16T18:15:00.991Z,14.00
2018-04-16T18:17:33.157Z,13.90
2018-04-16T18:20:05.870Z,13.80
2018-04-16T18:22:38.309Z,13.80
2018-04-16T18:25:10.349Z,13.80
2018-04-16T18:27:43.217Z,13.60
2018-04-16T18:30:16.598Z,13.50
2018-04-16T18:32:48.730Z,13.40
2018-04-16T18:35:20.809Z,13.40
2018-04-16T18:37:53.091Z,13.30
2018-04-16T18:40:25.225Z,13.30
2018-04-16T18:42:57.700Z,13.20
2018-04-16T18:45:30.892Z,13.10
2018-04-16T18:48:02.995Z,13.10
2018-04-16T18:50:35.957Z,12.90
2018-04-16T18:53:08.135Z,12.90
2018-04-16T18:55:40.259Z,12.80
2018-04-16T18:58:13.156Z,12.60
2018-04-16T19:00:45.358Z,12.60
2018-04-16T19:03:17.758Z,12.50
2018-04-16T19:05:50.221Z,12.50
2018-04-16T19:08:23.122Z,12.20
2018-04-16T19:10:56.104Z,12.20
2018-04-16T19:13:28.322Z,12.20
2018-04-16T19:16:00.552Z,12.10
2018-04-16T19:18:32.582Z,12.00
2018-04-16T19:21:04.785Z,12.00
2018-04-16T19:23:37.754Z,11.80
2018-04-16T19:26:10.139Z,11.80
2018-04-16T19:28:42.365Z,11.80
2018-04-16T19:31:14.442Z,11.80
2018-04-16T19:33:46.598Z,11.70
2018-04-16T19:36:18.799Z,11.60
2018-04-16T19:38:51.904Z,11.50
2018-04-16T19:41:25.813Z,11.40
2018-04-16T19:43:58.708Z,11.30
2018-04-16T19:46:31.047Z,11.30
2018-04-16T19:49:03.402Z,11.20
2018-04-16T19:51:35.722Z,11.10
2018-04-16T19:54:08.157Z,11.10
2018-04-16T19:56:40.251Z,11.10
2018-04-16T19:59:12.496Z,11.00
2018-04-16T20:01:44.758Z,10.90
2018-04-16T20:04:17.012Z,10.80
2018-04-16T20:06:49.185Z,10.80
2018-04-16T20:09:21.352Z,10.70
2018-04-16T20:11:53.483Z,10.70
2018-04-16T20:14:25.834Z,10.60
2018-04-16T20:16:58.773Z,10.50
2018-04-16T20:19:30.923Z,10.40
2018-04-16T20:22:03.133Z,10.40
2018-04-16T20:24:35.302Z,10.40
2018-04-16T20:27:07.472Z,10.30
2018-04-16T20:29:39.596Z,10.30
2018-04-16T20:32:11.804Z,10.20
2018-04-16T20:34:43.981Z,10.20
2018-04-16T20:37:16.113Z,10.20
2018-04-16T20:39:48.316Z,10.10
2018-04-16T20:42:20.440Z,10.10
2018-04-16T20:44:52.637Z,10.00
2018-04-16T20:47:25.039Z,10.00
2018-04-16T20:49:57.979Z,9.90
2018-04-16T20:52:30.313Z,9.90
2018-04-16T20:55:03.364Z,9.70
2018-04-16T20:57:35.780Z,9.70
2018-04-16T21:00:07.992Z,9.70
2018-04-16T21:02:40.029Z,9.60
2018-04-16T21:05:12.364Z,9.60
2018-04-16T21:07:45.299Z,9.60
2018-04-16T21:10:17.445Z,9.60
2018-04-16T21:12:49.553Z,9.60
2018-04-16T21:15:21.792Z,9.50
2018-04-16T21:17:53.902Z,9.40
2018-04-16T21:20:26.159Z,9.40
2018-04-16T21:22:58.246Z,9.30
2018-04-16T21:25:30.387Z,9.30
2018-04-16T21:28:02.536Z,9.30
2018-04-16T21:30:34.703Z,9.20
2018-04-16T21:33:06.796Z,9.20
2018-04-16T21:35:39.453Z,9.10
2018-04-16T21:38:12.046Z,9.00
2018-04-16T21:40:44.327Z,9.00
2018-04-16T21:43:16.413Z,9.00
2018-04-16T21:45:49.372Z,9.00
2018-04-16T21:48:21.516Z,9.00
2018-04-16T21:50:53.696Z,9.00
2018-04-16T21:53:26.115Z,9.00
2018-04-16T21:55:59.211Z,8.90
2018-04-16T21:58:31.554Z,8.90
2018-04-16T22:01:03.794Z,9.00
2018-04-16T22:03:35.944Z,8.80
2018-04-16T22:06:08.109Z,8.90
2018-04-16T22:08:40.139Z,8.80
2018-04-16T22:11:13.065Z,8.60
2018-04-16T22:13:45.389Z,8.60
2018-04-16T22:16:17.530Z,8.50
2018-04-16T22:18:50.058Z,8.50
2018-04-16T22:21:23.153Z,8.50
2018-04-16T22:23:56.206Z,8.50
2018-04-16T22:26:28.480Z,8.40
2018-04-16T22:29:00.515Z,8.40
2018-04-16T22:31:32.785Z,8.40
2018-04-16T22:34:04.975Z,8.40
2018-04-16T22:36:37.048Z,8.40
2018-04-16T22:39:09.234Z,8.20
2018-04-16T22:41:42.310Z,8.10
2018-04-16T22:44:14.438Z,8.10
2018-04-16T22:46:46.628Z,8.00
2018-04-16T22:49:18.739Z,8.10
2018-04-16T22:51:51.092Z,8.00
2018-04-16T22:54:24.180Z,8.00
2018-04-16T22:56:57.196Z,8.10
2018-04-16T22:59:29.532Z,8.00
2018-04-16T23:02:02.359Z,8.10
2018-04-16T23:04:34.928Z,8.00
2018-04-16T23:07:07.033Z,8.00
2018-04-16T23:09:39.195Z,8.00
2018-04-16T23:12:11.999Z,7.90
2018-04-16T23:14:45.046Z,7.90
2018-04-16T23:17:17.127Z,7.90
2018-04-16T23:19:49.202Z,7.80
2018-04-16T23:22:22.020Z,7.80
2018-04-16T23:24:54.978Z,7.70
2018-04-16T23:27:27.124Z,7.70
2018-04-16T23:29:59.245Z,7.70
2018-04-16T23:32:32.117Z,7.60
2018-04-16T23:35:04.257Z,7.60
2018-04-16T23:37:36.458Z,7.60
2018-04-16T23:40:09.572Z,7.50
2018-04-16T23:42:41.909Z,7.50
2018-04-16T23:45:13.984Z,7.50
2018-04-16T23:47:46.850Z,7.40
2018-04-16T23:50:19.160Z,7.40
2018-04-16T23:52:52.076Z,7.30
2018-04-16T23:55:24.208Z,7.30
2018-04-16T23:57:57.006Z,7.30
